sensor_id;sensor_type;location;lat;lon;timestamp;pressure;altitude;pressure_sealevel;temperature;humidity
73297;BME280;61524;50.938;11.396;2022-12-29T00:02:13;98264.84;;;7.63;80.21
73297;BME280;61524;50.938;11.396;2022-12-29T00:04:39;98278.38;;;7.61;80.50
73297;BME280;61524;50.938;11.396;2022-12-29T00:07:04;98272.00;;;7.62;80.23
73297;BME280;61524;50.938;11.396;2022-12-29T00:09:31;98267.94;;;7.55;80.35
73297;BME280;61524;50.938;11.396;2022-12-29T00:11:57;98265.28;;;7.55;80.83
73297;BME280;61524;50.938;11.396;2022-12-29T00:14:23;98252.72;;;7.50;80.74
73297;BME280;61524;50.938;11.396;2022-12-29T00:17:07;98250.78;;;7.46;81.01
73297;BME280;61524;50.938;11.396;2022-12-29T00:19:33;98257.34;;;7.38;81.51
73297;BME280;61524;50.938;11.396;2022-12-29T00:22:17;98239.03;;;7.42;81.33
73297;BME280;61524;50.938;11.396;2022-12-29T00:25:02;98246.66;;;7.33;81.59
73297;BME280;61524;50.938;11.396;2022-12-29T00:27:46;98241.00;;;7.29;81.73
73297;BME280;61524;50.938;11.396;2022-12-29T00:30:30;98225.41;;;7.33;81.90
73297;BME280;61524;50.938;11.396;2022-12-29T00:33:16;98233.59;;;7.31;81.91
73297;BME280;61524;50.938;11.396;2022-12-29T00:38:35;98232.94;;;7.41;82.33
73297;BME280;61524;50.938;11.396;2022-12-29T00:41:21;98235.72;;;7.51;81.86
73297;BME280;61524;50.938;11.396;2022-12-29T00:44:06;98233.66;;;7.58;81.98
73297;BME280;61524;50.938;11.396;2022-12-29T00:46:41;98222.25;;;7.58;81.30
73297;BME280;61524;50.938;11.396;2022-12-29T00:49:09;98213.47;;;7.57;82.35
73297;BME280;61524;50.938;11.396;2022-12-29T00:51:55;98224.81;;;7.53;81.98
73297;BME280;61524;50.938;11.396;2022-12-29T00:54:21;98207.53;;;7.50;82.47
73297;BME280;61524;50.938;11.396;2022-12-29T00:56:51;98206.41;;;7.46;82.87
73297;BME280;61524;50.938;11.396;2022-12-29T00:59:18;98219.72;;;7.46;83.08
73297;BME280;61524;50.938;11.396;2022-12-29T01:01:44;98212.00;;;7.45;83.12
73297;BME280;61524;50.938;11.396;2022-12-29T01:04:10;98212.25;;;7.43;83.36
73297;BME280;61524;50.938;11.396;2022-12-29T01:06:39;98221.63;;;7.51;83.34
73297;BME280;61524;50.938;11.396;2022-12-29T01:09:05;98216.63;;;7.54;82.91
73297;BME280;61524;50.938;11.396;2022-12-29T01:11:49;98208.28;;;7.46;83.42
73297;BME280;61524;50.938;11.396;2022-12-29T01:14:16;98198.81;;;7.55;83.50
73297;BME280;61524;50.938;11.396;2022-12-29T01:16:42;98201.75;;;7.53;83.30
73297;BME280;61524;50.938;11.396;2022-12-29T01:19:07;98202.22;;;7.50;83.59
73297;BME280;61524;50.938;11.396;2022-12-29T01:21:33;98211.06;;;7.56;83.52
73297;BME280;61524;50.938;11.396;2022-12-29T01:23:58;98195.84;;;7.51;83.66
73297;BME280;61524;50.938;11.396;2022-12-29T01:26:24;98204.88;;;7.50;83.77
73297;BME280;61524;50.938;11.396;2022-12-29T01:28:49;98204.41;;;7.53;83.75
73297;BME280;61524;50.938;11.396;2022-12-29T01:31:15;98201.28;;;7.61;83.98
73297;BME280;61524;50.938;11.396;2022-12-29T01:33:42;98200.81;;;7.65;83.79
73297;BME280;61524;50.938;11.396;2022-12-29T01:36:10;98201.84;;;7.63;83.55
73297;BME280;61524;50.938;11.396;2022-12-29T01:38:37;98191.97;;;7.59;83.96
73297;BME280;61524;50.938;11.396;2022-12-29T01:41:04;98194.97;;;7.68;83.95
73297;BME280;61524;50.938;11.396;2022-12-29T01:48:54;98187.56;;;7.70;84.02
73297;BME280;61524;50.938;11.396;2022-12-29T01:51:23;98194.44;;;7.66;84.13
73297;BME280;61524;50.938;11.396;2022-12-29T01:53:50;98197.91;;;7.66;84.41
73297;BME280;61524;50.938;11.396;2022-12-29T01:56:19;98196.34;;;7.70;84.49
73297;BME280;61524;50.938;11.396;2022-12-29T01:58:48;98193.25;;;7.78;84.02
73297;BME280;61524;50.938;11.396;2022-12-29T02:01:15;98203.34;;;7.76;84.13
73297;BME280;61524;50.938;11.396;2022-12-29T02:03:43;98205.63;;;7.68;84.69
73297;BME280;61524;50.938;11.396;2022-12-29T02:06:16;98189.25;;;7.76;84.52
73297;BME280;61524;50.938;11.396;2022-12-29T02:08:46;98204.19;;;7.82;84.08
73297;BME280;61524;50.938;11.396;2022-12-29T02:11:12;98197.94;;;7.93;83.68
73297;BME280;61524;50.938;11.396;2022-12-29T02:13:38;98195.47;;;7.86;84.29
73297;BME280;61524;50.938;11.396;2022-12-29T02:16:41;98196.81;;;7.89;84.07
73297;BME280;61524;50.938;11.396;2022-12-29T02:30:43;98185.38;;;7.88;83.33
73297;BME280;61524;50.938;11.396;2022-12-29T02:36:21;98172.28;;;7.82;84.12
73297;BME280;61524;50.938;11.396;2022-12-29T02:46:28;98135.81;;;7.77;84.99
73297;BME280;61524;50.938;11.396;2022-12-29T02:49:12;98149.59;;;7.74;85.84
73297;BME280;61524;50.938;11.396;2022-12-29T02:52:02;98149.34;;;7.76;85.98
73297;BME280;61524;50.938;11.396;2022-12-29T02:54:28;98138.72;;;7.76;85.53
73297;BME280;61524;50.938;11.396;2022-12-29T02:57:26;98132.84;;;7.74;86.61
73297;BME280;61524;50.938;11.396;2022-12-29T03:08:02;98133.88;;;7.73;86.68
73297;BME280;61524;50.938;11.396;2022-12-29T03:13:43;98127.47;;;7.69;87.62
73297;BME280;61524;50.938;11.396;2022-12-29T03:16:45;98139.09;;;7.62;87.59
73297;BME280;61524;50.938;11.396;2022-12-29T03:19:23;98140.22;;;7.67;87.77
73297;BME280;61524;50.938;11.396;2022-12-29T03:21:54;98138.09;;;7.69;87.99
73297;BME280;61524;50.938;11.396;2022-12-29T03:24:43;98131.44;;;7.66;88.54
73297;BME280;61524;50.938;11.396;2022-12-29T03:27:14;98129.56;;;7.67;88.26
73297;BME280;61524;50.938;11.396;2022-12-29T03:29:45;98127.34;;;7.58;89.13
73297;BME280;61524;50.938;11.396;2022-12-29T03:32:13;98141.69;;;7.57;88.79
73297;BME280;61524;50.938;11.396;2022-12-29T03:34:39;98142.00;;;7.61;89.07
73297;BME280;61524;50.938;11.396;2022-12-29T03:37:14;98136.44;;;7.62;89.50
73297;BME280;61524;50.938;11.396;2022-12-29T03:39:42;98147.59;;;7.59;89.73
73297;BME280;61524;50.938;11.396;2022-12-29T03:42:13;98141.81;;;7.68;89.31
73297;BME280;61524;50.938;11.396;2022-12-29T03:44:42;98141.56;;;7.69;89.74
73297;BME280;61524;50.938;11.396;2022-12-29T03:47:09;98148.94;;;7.62;89.53
73297;BME280;61524;50.938;11.396;2022-12-29T03:49:35;98162.81;;;7.69;89.46
73297;BME280;61524;50.938;11.396;2022-12-29T03:52:01;98162.81;;;7.69;89.29
73297;BME280;61524;50.938;11.396;2022-12-29T03:54:26;98175.63;;;7.72;89.32
73297;BME280;61524;50.938;11.396;2022-12-29T03:56:52;98192.44;;;7.78;89.25
73297;BME280;61524;50.938;11.396;2022-12-29T03:59:17;98184.94;;;7.75;89.73
73297;BME280;61524;50.938;11.396;2022-12-29T04:01:42;98181.84;;;7.83;88.88
73297;BME280;61524;50.938;11.396;2022-12-29T04:04:08;98186.00;;;7.74;89.90
73297;BME280;61524;50.938;11.396;2022-12-29T04:06:34;98193.50;;;7.77;89.71
73297;BME280;61524;50.938;11.396;2022-12-29T04:08:59;98202.28;;;7.77;90.09
73297;BME280;61524;50.938;11.396;2022-12-29T04:11:25;98195.59;;;7.75;90.50
73297;BME280;61524;50.938;11.396;2022-12-29T04:13:50;98198.56;;;7.78;89.95
73297;BME280;61524;50.938;11.396;2022-12-29T04:16:15;98202.53;;;7.76;90.71
73297;BME280;61524;50.938;11.396;2022-12-29T04:18:41;98197.22;;;7.76;90.66
73297;BME280;61524;50.938;11.396;2022-12-29T04:21:06;98195.34;;;7.76;90.23
73297;BME280;61524;50.938;11.396;2022-12-29T04:23:34;98223.47;;;7.72;91.26
73297;BME280;61524;50.938;11.396;2022-12-29T04:26:01;98209.94;;;7.74;90.64
73297;BME280;61524;50.938;11.396;2022-12-29T04:28:27;98207.78;;;7.71;90.77
73297;BME280;61524;50.938;11.396;2022-12-29T04:30:53;98207.22;;;7.69;91.18
73297;BME280;61524;50.938;11.396;2022-12-29T04:33:19;98190.13;;;7.59;91.50
73297;BME280;61524;50.938;11.396;2022-12-29T04:35:45;98176.31;;;7.62;91.08
73297;BME280;61524;50.938;11.396;2022-12-29T04:38:10;98162.91;;;7.52;91.58
73297;BME280;61524;50.938;11.396;2022-12-29T04:40:38;98172.78;;;7.57;91.62
73297;BME280;61524;50.938;11.396;2022-12-29T04:43:05;98163.28;;;7.61;91.60
73297;BME280;61524;50.938;11.396;2022-12-29T04:45:30;98181.75;;;7.51;91.87
73297;BME280;61524;50.938;11.396;2022-12-29T04:47:56;98178.56;;;7.49;92.27
73297;BME280;61524;50.938;11.396;2022-12-29T04:50:21;98178.09;;;7.57;92.08
73297;BME280;61524;50.938;11.396;2022-12-29T04:52:47;98165.69;;;7.62;92.09
73297;BME280;61524;50.938;11.396;2022-12-29T04:55:12;98161.28;;;7.73;91.41
73297;BME280;61524;50.938;11.396;2022-12-29T04:57:38;98157.75;;;7.68;92.24
73297;BME280;61524;50.938;11.396;2022-12-29T05:00:04;98156.16;;;7.67;91.53
73297;BME280;61524;50.938;11.396;2022-12-29T05:02:29;98166.06;;;7.71;91.44
73297;BME280;61524;50.938;11.396;2022-12-29T05:04:55;98157.56;;;7.74;91.35
73297;BME280;61524;50.938;11.396;2022-12-29T05:07:20;98160.47;;;7.73;91.74
73297;BME280;61524;50.938;11.396;2022-12-29T05:09:46;98164.25;;;7.77;91.76
73297;BME280;61524;50.938;11.396;2022-12-29T05:12:11;98157.50;;;7.91;91.53
73297;BME280;61524;50.938;11.396;2022-12-29T05:14:37;98158.41;;;8.02;91.23
73297;BME280;61524;50.938;11.396;2022-12-29T05:17:02;98150.94;;;8.04;91.48
73297;BME280;61524;50.938;11.396;2022-12-29T05:19:27;98133.13;;;8.04;91.44
73297;BME280;61524;50.938;11.396;2022-12-29T05:21:53;98153.94;;;8.12;91.39
73297;BME280;61524;50.938;11.396;2022-12-29T05:24:19;98146.00;;;8.18;91.08
73297;BME280;61524;50.938;11.396;2022-12-29T05:26:45;98135.97;;;8.25;90.17
73297;BME280;61524;50.938;11.396;2022-12-29T05:29:10;98138.34;;;8.21;90.74
73297;BME280;61524;50.938;11.396;2022-12-29T05:31:36;98123.97;;;8.22;90.74
73297;BME280;61524;50.938;11.396;2022-12-29T05:34:02;98138.59;;;8.20;90.76
73297;BME280;61524;50.938;11.396;2022-12-29T05:36:27;98134.34;;;8.19;91.31
73297;BME280;61524;50.938;11.396;2022-12-29T05:38:53;98116.59;;;8.29;90.82
73297;BME280;61524;50.938;11.396;2022-12-29T05:41:18;98124.22;;;8.21;91.10
73297;BME280;61524;50.938;11.396;2022-12-29T05:43:44;98116.28;;;8.26;91.09
73297;BME280;61524;50.938;11.396;2022-12-29T05:46:09;98116.72;;;8.39;90.90
73297;BME280;61524;50.938;11.396;2022-12-29T05:48:35;98113.47;;;8.37;90.78
73297;BME280;61524;50.938;11.396;2022-12-29T05:51:00;98120.75;;;8.47;90.84
73297;BME280;61524;50.938;11.396;2022-12-29T05:53:26;98118.09;;;8.47;90.86
73297;BME280;61524;50.938;11.396;2022-12-29T05:55:51;98118.16;;;8.57;90.20
73297;BME280;61524;50.938;11.396;2022-12-29T05:58:17;98106.22;;;8.65;90.73
73297;BME280;61524;50.938;11.396;2022-12-29T06:00:43;98092.66;;;8.66;90.75
73297;BME280;61524;50.938;11.396;2022-12-29T06:03:08;98100.66;;;8.66;90.46
73297;BME280;61524;50.938;11.396;2022-12-29T06:05:34;98112.38;;;8.71;90.19
73297;BME280;61524;50.938;11.396;2022-12-29T06:07:59;98107.56;;;8.67;90.72
73297;BME280;61524;50.938;11.396;2022-12-29T06:10:25;98101.19;;;8.68;90.09
73297;BME280;61524;50.938;11.396;2022-12-29T06:12:50;98108.47;;;8.83;89.93
73297;BME280;61524;50.938;11.396;2022-12-29T06:15:17;98096.47;;;8.86;90.01
73297;BME280;61524;50.938;11.396;2022-12-29T06:17:43;98082.91;;;8.87;89.73
73297;BME280;61524;50.938;11.396;2022-12-29T06:20:09;98079.44;;;8.87;88.75
73297;BME280;61524;50.938;11.396;2022-12-29T06:22:35;98062.63;;;8.81;89.36
73297;BME280;61524;50.938;11.396;2022-12-29T06:25:01;98061.50;;;8.67;89.23
73297;BME280;61524;50.938;11.396;2022-12-29T06:27:27;98068.63;;;8.56;89.59
73297;BME280;61524;50.938;11.396;2022-12-29T06:29:52;98070.47;;;8.51;90.16
73297;BME280;61524;50.938;11.396;2022-12-29T06:32:18;98075.28;;;8.59;90.13
73297;BME280;61524;50.938;11.396;2022-12-29T06:34:43;98076.06;;;8.54;89.66
73297;BME280;61524;50.938;11.396;2022-12-29T06:37:10;98075.78;;;8.51;89.97
73297;BME280;61524;50.938;11.396;2022-12-29T06:39:35;98083.22;;;8.49;89.36
73297;BME280;61524;50.938;11.396;2022-12-29T06:42:01;98084.00;;;8.49;89.13
73297;BME280;61524;50.938;11.396;2022-12-29T06:44:27;98091.47;;;8.47;89.57
73297;BME280;61524;50.938;11.396;2022-12-29T06:46:52;98081.72;;;8.31;89.87
73297;BME280;61524;50.938;11.396;2022-12-29T06:49:17;98101.03;;;8.16;89.81
73297;BME280;61524;50.938;11.396;2022-12-29T06:51:43;98091.31;;;8.32;90.16
73297;BME280;61524;50.938;11.396;2022-12-29T06:54:09;98095.47;;;8.50;88.81
73297;BME280;61524;50.938;11.396;2022-12-29T06:56:34;98096.06;;;8.57;89.16
73297;BME280;61524;50.938;11.396;2022-12-29T06:59:00;98097.88;;;8.51;88.54
73297;BME280;61524;50.938;11.396;2022-12-29T07:01:26;98087.22;;;8.51;88.09
73297;BME280;61524;50.938;11.396;2022-12-29T07:03:52;98092.63;;;8.61;88.50
73297;BME280;61524;50.938;11.396;2022-12-29T07:06:17;98101.13;;;8.58;88.51
73297;BME280;61524;50.938;11.396;2022-12-29T07:08:43;98087.00;;;8.58;88.65
73297;BME280;61524;50.938;11.396;2022-12-29T07:11:08;98093.78;;;8.81;87.34
73297;BME280;61524;50.938;11.396;2022-12-29T07:13:34;98093.19;;;8.68;87.89
73297;BME280;61524;50.938;11.396;2022-12-29T07:15:59;98088.31;;;8.50;89.29
73297;BME280;61524;50.938;11.396;2022-12-29T07:18:29;98083.81;;;8.56;88.94
73297;BME280;61524;50.938;11.396;2022-12-29T07:20:54;98077.94;;;8.59;88.61
73297;BME280;61524;50.938;11.396;2022-12-29T07:23:20;98079.53;;;8.55;88.84
73297;BME280;61524;50.938;11.396;2022-12-29T07:25:45;98075.88;;;8.71;88.32
73297;BME280;61524;50.938;11.396;2022-12-29T07:28:12;98078.53;;;8.66;87.57
73297;BME280;61524;50.938;11.396;2022-12-29T07:30:38;98111.50;;;8.60;88.19
73297;BME280;61524;50.938;11.396;2022-12-29T07:33:03;98096.34;;;8.65;88.43
73297;BME280;61524;50.938;11.396;2022-12-29T07:35:29;98106.84;;;8.77;88.29
73297;BME280;61524;50.938;11.396;2022-12-29T07:37:54;98103.88;;;8.74;87.66
73297;BME280;61524;50.938;11.396;2022-12-29T07:40:20;98086.88;;;8.80;87.65
73297;BME280;61524;50.938;11.396;2022-12-29T07:42:45;98078.53;;;8.71;87.92
73297;BME280;61524;50.938;11.396;2022-12-29T07:45:10;98087.88;;;8.68;88.33
73297;BME280;61524;50.938;11.396;2022-12-29T07:47:36;98098.53;;;8.68;87.34
73297;BME280;61524;50.938;11.396;2022-12-29T07:50:02;98095.84;;;8.68;88.57
73297;BME280;61524;50.938;11.396;2022-12-29T07:52:27;98109.50;;;8.77;88.44
73297;BME280;61524;50.938;11.396;2022-12-29T07:54:53;98108.97;;;8.80;88.65
73297;BME280;61524;50.938;11.396;2022-12-29T07:57:18;98103.47;;;8.97;87.87
73297;BME280;61524;50.938;11.396;2022-12-29T07:59:43;98127.53;;;9.17;87.56
73297;BME280;61524;50.938;11.396;2022-12-29T08:02:10;98129.72;;;9.26;86.84
73297;BME280;61524;50.938;11.396;2022-12-29T08:04:36;98137.19;;;9.34;87.06
73297;BME280;61524;50.938;11.396;2022-12-29T08:07:02;98135.91;;;9.36;86.69
73297;BME280;61524;50.938;11.396;2022-12-29T08:09:27;98141.47;;;9.35;86.36
73297;BME280;61524;50.938;11.396;2022-12-29T08:11:53;98161.50;;;9.42;86.58
73297;BME280;61524;50.938;11.396;2022-12-29T08:14:19;98139.91;;;9.44;86.39
73297;BME280;61524;50.938;11.396;2022-12-29T08:16:45;98135.63;;;9.38;86.42
73297;BME280;61524;50.938;11.396;2022-12-29T08:19:12;98132.66;;;9.34;86.07
73297;BME280;61524;50.938;11.396;2022-12-29T08:21:37;98134.81;;;9.32;86.74
73297;BME280;61524;50.938;11.396;2022-12-29T08:24:03;98143.88;;;9.31;86.77
73297;BME280;61524;50.938;11.396;2022-12-29T08:26:28;98128.91;;;9.25;86.61
73297;BME280;61524;50.938;11.396;2022-12-29T08:28:54;98124.66;;;9.29;87.23
73297;BME280;61524;50.938;11.396;2022-12-29T08:31:21;98136.13;;;9.30;86.93
73297;BME280;61524;50.938;11.396;2022-12-29T08:33:46;98135.06;;;9.26;85.88
73297;BME280;61524;50.938;11.396;2022-12-29T08:36:12;98137.97;;;9.24;86.40
73297;BME280;61524;50.938;11.396;2022-12-29T08:38:37;98139.34;;;9.32;85.78
73297;BME280;61524;50.938;11.396;2022-12-29T08:41:03;98127.88;;;9.41;86.35
73297;BME280;61524;50.938;11.396;2022-12-29T08:43:29;98121.56;;;9.53;86.06
73297;BME280;61524;50.938;11.396;2022-12-29T08:45:57;98115.94;;;9.54;85.38
73297;BME280;61524;50.938;11.396;2022-12-29T08:48:23;98109.84;;;9.59;84.96
73297;BME280;61524;50.938;11.396;2022-12-29T08:50:49;98119.72;;;9.58;85.42
73297;BME280;61524;50.938;11.396;2022-12-29T08:53:15;98131.44;;;9.72;84.47
73297;BME280;61524;50.938;11.396;2022-12-29T08:55:47;98136.81;;;9.78;84.96
73297;BME280;61524;50.938;11.396;2022-12-29T08:58:19;98134.97;;;9.98;83.76
73297;BME280;61524;50.938;11.396;2022-12-29T09:00:44;98137.13;;;9.96;83.87
73297;BME280;61524;50.938;11.396;2022-12-29T09:03:10;98131.25;;;9.99;83.51
73297;BME280;61524;50.938;11.396;2022-12-29T09:05:35;98138.19;;;10.06;82.93
73297;BME280;61524;50.938;11.396;2022-12-29T09:08:01;98147.00;;;10.01;83.35
73297;BME280;61524;50.938;11.396;2022-12-29T09:10:26;98131.81;;;10.07;83.40
73297;BME280;61524;50.938;11.396;2022-12-29T09:12:51;98144.88;;;10.08;83.10
73297;BME280;61524;50.938;11.396;2022-12-29T09:15:17;98144.88;;;10.08;83.42
73297;BME280;61524;50.938;11.396;2022-12-29T09:17:43;98157.94;;;10.10;83.20
73297;BME280;61524;50.938;11.396;2022-12-29T09:20:09;98140.31;;;10.04;83.77
73297;BME280;61524;50.938;11.396;2022-12-29T09:22:36;98161.97;;;10.07;83.03
73297;BME280;61524;50.938;11.396;2022-12-29T09:25:02;98144.31;;;10.06;83.80
73297;BME280;61524;50.938;11.396;2022-12-29T09:27:27;98150.47;;;10.17;82.78
73297;BME280;61524;50.938;11.396;2022-12-29T09:29:53;98161.44;;;10.20;82.60
73297;BME280;61524;50.938;11.396;2022-12-29T09:32:18;98160.94;;;10.23;82.56
73297;BME280;61524;50.938;11.396;2022-12-29T09:34:44;98157.69;;;10.21;82.83
73297;BME280;61524;50.938;11.396;2022-12-29T09:37:10;98168.91;;;10.18;82.72
73297;BME280;61524;50.938;11.396;2022-12-29T09:39:35;98160.66;;;10.25;83.12
73297;BME280;61524;50.938;11.396;2022-12-29T09:44:51;98165.47;;;10.38;81.99
73297;BME280;61524;50.938;11.396;2022-12-29T09:47:21;98154.78;;;10.43;82.49
73297;BME280;61524;50.938;11.396;2022-12-29T09:52:18;98141.19;;;10.55;81.82
73297;BME280;61524;50.938;11.396;2022-12-29T09:55:04;98147.31;;;10.56;81.01
73297;BME280;61524;50.938;11.396;2022-12-29T10:00:16;98141.72;;;10.52;82.07
73297;BME280;61524;50.938;11.396;2022-12-29T10:02:46;98134.50;;;10.47;81.81
73297;BME280;61524;50.938;11.396;2022-12-29T10:13:28;98158.00;;;10.56;81.16
73297;BME280;61524;50.938;11.396;2022-12-29T10:16:16;98131.00;;;10.67;80.60
73297;BME280;61524;50.938;11.396;2022-12-29T10:21:22;98133.66;;;10.77;79.98
73297;BME280;61524;50.938;11.396;2022-12-29T10:23:52;98129.94;;;10.68;80.47
73297;BME280;61524;50.938;11.396;2022-12-29T10:26:23;98118.75;;;10.61;80.79
73297;BME280;61524;50.938;11.396;2022-12-29T10:29:02;98131.78;;;10.83;80.49
73297;BME280;61524;50.938;11.396;2022-12-29T10:31:57;98132.25;;;11.11;79.26
73297;BME280;61524;50.938;11.396;2022-12-29T10:34:27;98129.53;;;11.21;79.23
73297;BME280;61524;50.938;11.396;2022-12-29T10:37:04;98131.94;;;11.22;78.75
73297;BME280;61524;50.938;11.396;2022-12-29T10:39:35;98135.19;;;11.14;78.99
73297;BME280;61524;50.938;11.396;2022-12-29T10:42:13;98132.72;;;11.23;78.23
73297;BME280;61524;50.938;11.396;2022-12-29T10:44:40;98126.78;;;11.46;78.10
73297;BME280;61524;50.938;11.396;2022-12-29T10:47:13;98131.03;;;11.52;76.92
73297;BME280;61524;50.938;11.396;2022-12-29T10:49:41;98125.16;;;11.40;77.53
73297;BME280;61524;50.938;11.396;2022-12-29T10:52:08;98129.25;;;11.22;78.45
73297;BME280;61524;50.938;11.396;2022-12-29T10:57:47;98140.75;;;11.23;77.94
73297;BME280;61524;50.938;11.396;2022-12-29T11:00:23;98143.22;;;11.14;78.21
73297;BME280;61524;50.938;11.396;2022-12-29T11:06:23;98123.72;;;11.03;78.41
73297;BME280;61524;50.938;11.396;2022-12-29T11:09:09;98118.63;;;11.02;78.62
73297;BME280;61524;50.938;11.396;2022-12-29T11:11:37;98132.78;;;11.08;78.65
73297;BME280;61524;50.938;11.396;2022-12-29T11:14:16;98121.84;;;11.09;78.60
73297;BME280;61524;50.938;11.396;2022-12-29T11:16:43;98142.44;;;11.03;78.20
73297;BME280;61524;50.938;11.396;2022-12-29T11:19:21;98135.22;;;11.04;78.23
73297;BME280;61524;50.938;11.396;2022-12-29T11:21:47;98132.53;;;11.09;78.85
73297;BME280;61524;50.938;11.396;2022-12-29T11:24:29;98149.38;;;11.04;78.43
73297;BME280;61524;50.938;11.396;2022-12-29T11:27:14;98147.78;;;11.09;78.26
73297;BME280;61524;50.938;11.396;2022-12-29T11:29:40;98126.91;;;11.11;77.05
73297;BME280;61524;50.938;11.396;2022-12-29T11:34:38;98136.50;;;11.12;77.70
73297;BME280;61524;50.938;11.396;2022-12-29T11:37:13;98143.72;;;11.16;77.67
73297;BME280;61524;50.938;11.396;2022-12-29T11:42:17;98138.38;;;11.16;77.15
73297;BME280;61524;50.938;11.396;2022-12-29T11:44:46;98146.09;;;11.23;76.82
73297;BME280;61524;50.938;11.396;2022-12-29T11:47:32;98133.81;;;11.22;77.38
73297;BME280;61524;50.938;11.396;2022-12-29T11:50:04;98133.03;;;11.21;77.71
73297;BME280;61524;50.938;11.396;2022-12-29T11:52:35;98128.75;;;11.20;77.03
73297;BME280;61524;50.938;11.396;2022-12-29T11:55:04;98147.50;;;11.05;78.75
73297;BME280;61524;50.938;11.396;2022-12-29T11:57:32;98149.63;;;11.03;79.03
73297;BME280;61524;50.938;11.396;2022-12-29T12:00:02;98140.81;;;11.08;78.84
73297;BME280;61524;50.938;11.396;2022-12-29T12:02:36;98148.81;;;11.02;79.18
73297;BME280;61524;50.938;11.396;2022-12-29T12:05:13;98143.47;;;11.02;79.15
73297;BME280;61524;50.938;11.396;2022-12-29T12:07:43;98128.03;;;10.94;79.35
73297;BME280;61524;50.938;11.396;2022-12-29T12:10:27;98141.91;;;10.86;79.30
73297;BME280;61524;50.938;11.396;2022-12-29T12:16:13;98135.00;;;10.80;80.18
73297;BME280;61524;50.938;11.396;2022-12-29T12:21:14;98129.66;;;10.65;81.05
73297;BME280;61524;50.938;11.396;2022-12-29T12:29:37;98141.72;;;10.52;82.52
73297;BME280;61524;50.938;11.396;2022-12-29T12:32:23;98140.09;;;10.56;82.79
73297;BME280;61524;50.938;11.396;2022-12-29T12:34:50;98140.63;;;10.43;82.35
73297;BME280;61524;50.938;11.396;2022-12-29T12:37:26;98154.78;;;10.38;83.25
73297;BME280;61524;50.938;11.396;2022-12-29T12:45:36;98153.44;;;10.25;84.04
73297;BME280;61524;50.938;11.396;2022-12-29T12:51:45;98159.03;;;10.19;84.20
73297;BME280;61524;50.938;11.396;2022-12-29T13:02:01;98161.97;;;10.07;82.66
73297;BME280;61524;50.938;11.396;2022-12-29T13:04:52;98154.19;;;10.11;82.52
73297;BME280;61524;50.938;11.396;2022-12-29T13:10:19;98150.22;;;10.13;83.47
73297;BME280;61524;50.938;11.396;2022-12-29T13:24:50;98155.81;;;9.96;83.24
73297;BME280;61524;50.938;11.396;2022-12-29T13:27:44;98155.00;;;9.96;83.22
73297;BME280;61524;50.938;11.396;2022-12-29T13:30:18;98157.38;;;9.92;82.75
73297;BME280;61524;50.938;11.396;2022-12-29T13:32:50;98165.69;;;9.96;82.80
73297;BME280;61524;50.938;11.396;2022-12-29T13:38:05;98166.47;;;9.91;81.60
73297;BME280;61524;50.938;11.396;2022-12-29T13:40:38;98172.59;;;9.87;81.39
73297;BME280;61524;50.938;11.396;2022-12-29T13:43:05;98179.50;;;9.88;80.95
73297;BME280;61524;50.938;11.396;2022-12-29T13:45:32;98182.97;;;9.88;81.18
73297;BME280;61524;50.938;11.396;2022-12-29T13:48:18;98185.16;;;9.96;80.53
73297;BME280;61524;50.938;11.396;2022-12-29T13:50:53;98184.59;;;9.94;81.07
73297;BME280;61524;50.938;11.396;2022-12-29T13:57:08;98201.16;;;9.91;81.09
73297;BME280;61524;50.938;11.396;2022-12-29T14:04:03;98208.88;;;9.88;80.24
73297;BME280;61524;50.938;11.396;2022-12-29T14:06:35;98205.13;;;9.94;78.85
73297;BME280;61524;50.938;11.396;2022-12-29T14:12:42;98208.56;;;9.79;80.78
73297;BME280;61524;50.938;11.396;2022-12-29T14:17:34;98216.81;;;9.78;80.26
73297;BME280;61524;50.938;11.396;2022-12-29T14:19:59;98211.44;;;9.67;80.08
73297;BME280;61524;50.938;11.396;2022-12-29T14:22:27;98204.50;;;9.61;80.42
73297;BME280;61524;50.938;11.396;2022-12-29T14:24:52;98223.69;;;9.58;79.93
73297;BME280;61524;50.938;11.396;2022-12-29T14:29:46;98229.44;;;9.35;81.38
73297;BME280;61524;50.938;11.396;2022-12-29T14:34:47;98237.41;;;9.30;81.11
73297;BME280;61524;50.938;11.396;2022-12-29T14:37:32;98239.00;;;9.31;79.94
73297;BME280;61524;50.938;11.396;2022-12-29T14:40:03;98234.66;;;9.19;80.76
73297;BME280;61524;50.938;11.396;2022-12-29T14:42:30;98233.00;;;9.08;80.51
73297;BME280;61524;50.938;11.396;2022-12-29T14:45:06;98237.56;;;9.13;80.00
73297;BME280;61524;50.938;11.396;2022-12-29T14:47:40;98250.03;;;9.02;80.91
73297;BME280;61524;50.938;11.396;2022-12-29T14:55:47;98241.38;;;8.85;79.22
73297;BME280;61524;50.938;11.396;2022-12-29T15:00:54;98253.59;;;8.81;78.38
73297;BME280;61524;50.938;11.396;2022-12-29T15:03:30;98254.81;;;8.68;78.83
73297;BME280;61524;50.938;11.396;2022-12-29T15:06:13;98262.50;;;8.64;79.20
73297;BME280;61524;50.938;11.396;2022-12-29T15:09:09;98253.44;;;8.65;78.79
73297;BME280;61524;50.938;11.396;2022-12-29T15:16:53;98269.94;;;8.35;79.87
73297;BME280;61524;50.938;11.396;2022-12-29T15:19:23;98263.69;;;8.25;80.19
73297;BME280;61524;50.938;11.396;2022-12-29T15:21:49;98278.59;;;8.26;80.12
73297;BME280;61524;50.938;11.396;2022-12-29T15:24:15;98270.78;;;8.14;81.17
73297;BME280;61524;50.938;11.396;2022-12-29T15:26:45;98274.66;;;8.06;81.73
73297;BME280;61524;50.938;11.396;2022-12-29T15:32:20;98273.19;;;8.15;80.52
73297;BME280;61524;50.938;11.396;2022-12-29T15:34:53;98277.50;;;8.22;80.73
73297;BME280;61524;50.938;11.396;2022-12-29T15:37:28;98299.09;;;8.25;80.44
73297;BME280;61524;50.938;11.396;2022-12-29T15:39:56;98296.38;;;8.20;81.03
73297;BME280;61524;50.938;11.396;2022-12-29T15:44:56;98298.00;;;7.99;81.55
73297;BME280;61524;50.938;11.396;2022-12-29T15:49:50;98295.09;;;8.01;81.23